• Join FlightAware (Why Join?)
  • Login
  • US Flag 
Gobble Gobble! 
10:06PM EST


 

Airport Tracker/Info


-or-


 

Live Flight TrackerFlight Track Log ✈ RLI811 ✈ 12-Jul-2013 ✈ KHPN - KHYA

Flight Track Log - Related Links

Times and Time Zones

All times are in EDT time to prevent confusion due to time zone crossing. See the RLI811 flight status page for this flight to view local times or setup timezone preferences in your user account.

Time Position Orientation Groundspeed Altitude Reporting Facility
EDT Latitude Longitude Course Direction KTS MPH feet Rate Location/Type
03:13PM 41.0167 -73.7000 180° South 154 177 2,000  Level New York TRACON
03:14PM 41.0333 -73.7500 294° West 127 146 3,000 900 Climbing New York TRACON
03:15PM 41.0667 -73.7833 323° Northwest 143 165 4,000 900 Climbing New York TRACON
03:16PM 41.1000 -73.8000 339° North 127 146 4,900 840 Climbing New York TRACON
03:17PM 41.1333 -73.8000 360° North 125 144 5,700 780 Climbing New York TRACON
03:18PM 41.1667 -73.8000 360° North 131 151 6,400 600 Climbing New York TRACON
03:19PM 41.1833 -73.7667 56° Northeast 135 155 6,900 240 Climbing New York TRACON
03:20PM 41.2167 -73.7333 37° Northeast 161 185 6,900  Level New York TRACON
03:21PM 41.2333 -73.6833 66° East 169 194 6,900  Level New York TRACON
03:22PM 41.2667 -73.6167 56° Northeast 175 201 6,900  Level New York TRACON
03:23PM 41.2833 -73.5667 66° East 180 207 6,900  Level New York TRACON
03:24PM 41.3000 -73.5167 66° East 181 208 6,900  Level New York TRACON
03:25PM 41.3333 -73.4500 56° Northeast 177 204 6,900  Level New York TRACON
03:26PM 41.3500 -73.3833 72° East 175 201 6,900  Level New York TRACON
03:27PM 41.3653 -73.3417 64° Northeast 174 200 7,000  Climbing Boston Center
03:28PM 41.3864 -73.2783 66° East 174 200 7,000  Level Boston Center
03:29PM 41.4078 -73.2178 65° Northeast 176 203 7,000  Level Boston Center
03:30PM 41.4289 -73.1572 65° Northeast 176 203 7,000  Level Boston Center
03:31PM 41.4397 -73.0964 77° East 174 200 7,000  Level Boston Center
03:32PM 41.4547 -73.0411 70° East 175 201 7,000  Level Boston Center
03:33PM 41.4675 -72.9886 72° East 175 201 7,000  Level Boston Center
03:34PM 41.4719 -72.9167 85° East 173 199 7,000  Level Boston Center
03:35PM 41.4889 -72.8558 70° East 173 199 7,000  Level Boston Center
03:36PM 41.5142 -72.7978 60° Northeast 174 200 7,000  Level Boston Center
03:37PM 41.5183 -72.7339 85° East 174 200 7,000  Level Boston Center
03:38PM 41.5206 -72.6703 87° East 175 201 7,000  Level Boston Center
03:39PM 41.5228 -72.6036 87° East 175 201 7,000  Level Boston Center
03:40PM 41.5314 -72.5372 80° East 175 201 7,000  Level Boston Center
03:41PM 41.5397 -72.4761 80° East 176 203 7,000  Level Boston Center
03:42PM 41.5500 -72.4094 78° East 177 204 7,000  Level Boston Center
03:43PM 41.5583 -72.3431 80° East 176 203 7,000  Level Boston Center
03:44PM 41.5686 -72.2792 78° East 175 201 7,000  Level Boston Center
03:45PM 41.5792 -72.2292 74° East 177 204 7,000  Level Boston Center
03:47PM 41.5997 -72.1319 74° East 175 201 7,000  Level Boston Center
03:48PM 41.6078 -72.0681 80° East 176 203 7,000  Level Boston Center
03:49PM 41.6181 -72.0042 78° East 177 204 7,000  Level Boston Center
03:50PM 41.6281 -71.9431 78° East 177 204 7,000  Level Boston Center
03:51PM 41.6361 -71.8789 80° East 178 205 7,000 -60 Level Boston Center
03:52PM 41.6525 -71.8039 74° East 178 205 6,900  Descending Boston Center
03:53PM 41.6606 -71.7428 80° East 179 206 7,000  Climbing Boston Center
03:54PM 41.6725 -71.6731 77° East 181 208 7,000 -60 Level Boston Center
03:55PM 41.6803 -71.6089 81° East 183 211 6,900 -60 Descending Boston Center
03:56PM 41.6736 -71.5425 98° East 181 208 6,900  Level Boston Center
03:57PM 41.6711 -71.4842 93° East 180 207 6,900  Level Boston Center
03:58PM 41.6725 -71.4092 89° East 176 203 7,000  Climbing Boston Center
03:59PM 41.6739 -71.3339 89° East 178 205 7,000  Level Boston Center
04:00PM 41.6733 -71.2700 91° East 179 206 7,000 -60 Level Boston Center
04:01PM 41.6725 -71.2089 91° East 179 206 6,900 -60 Descending Boston Center
04:02PM 41.6697 -71.1311 93° East 179 206 6,900  Level Boston Center
04:03PM 41.6689 -71.0700 91° East 181 208 7,000 60 Climbing Boston Center
04:05PM 41.6692 -70.9856 71° East  Level Estimated
04:12PM 41.6698 -70.5916 75° East  Level Estimated
04:13PM 41.7107 -70.5784 14° North  Level FlightAware Approximate
04:14PM 41.7030 -70.5231 80° East  Level Estimated
04:15PM 41.7397 -70.4955 29° Northeast  Level FlightAware Approximate
04:16PM 41.7764 -70.4680 29° Northeast  Level FlightAware Approximate
04:17PM 41.7509 -70.4232 157° South  Level Estimated
04:18PM 41.7418 -70.3682 102° East  Level FlightAware Approximate
04:19PM 41.7327 -70.3131 102° East  Level FlightAware Approximate
04:20PM 41.7189 -70.3058 151° Southeast  Level FlightAware Approximate
04:21PM 41.6822 -70.2783 151° Southeast  Level FlightAware Approximate
04:22PM 41.6667 -70.2667 151° Southeast  Level FlightAware Approximate
04:23PM 41.6693 -70.2804 151° Southeast  Level Estimated
04:24PM 41.6693 -70.2804 151° Southeast  Level Estimated
04:25PM 41.6693 -70.2804 151° Southeast  Level Estimated
04:26PM 41.6693 -70.2804 151° Southeast  Level Estimated